Time;durP1;ratioP1;P1;durP2;ratioP2;P2;SDS_P1;SDS_P2;PMS_P1;PMS_P2;Temp;Humidity;BMP_temperature;BMP_pressure;BME280_temperature;BME280_humidity;BME280_pressure;Samples;Min_cycle;Max_cycle;Signal;HPM_P1;HPM_P2
2022/09/06 00:00:36;;;;;;;6.80;3.03;;;20.60;95.00;;;;;;5024247;28;20472;-63
2022/09/06 00:03:03;;;;;;;15.97;3.40;;;21.00;94.30;;;;;;5033592;28;20936;-61
2022/09/06 00:05:31;;;;;;;21.13;4.10;;;;;;;;;;5028135;28;20563;-61
2022/09/06 00:07:58;;;;;;;14.83;3.10;;;21.50;94.30;;;;;;5033044;28;20480;-62
2022/09/06 00:10:25;;;;;;;15.20;3.43;;;21.80;94.30;;;;;;5021536;28;20476;-62
2022/09/06 00:12:54;;;;;;;10.00;3.60;;;;;;;;;;5034643;28;21180;-62
2022/09/06 00:15:21;;;;;;;20.33;4.87;;;21.80;95.90;;;;;;5030083;28;20888;-61
2022/09/06 00:17:48;;;;;;;16.87;4.07;;;21.70;96.30;;;;;;5033458;28;20485;-62
2022/09/06 00:20:15;;;;;;;13.53;4.20;;;21.70;96.40;;;;;;5034589;28;20476;-61
2022/09/06 00:22:42;;;;;;;9.90;3.43;;;21.60;96.70;;;;;;5036813;28;20553;-61
2022/09/06 00:25:09;;;;;;;24.50;4.57;;;21.50;97.20;;;;;;5033592;28;20538;-63
2022/09/06 00:27:35;;;;;;;9.80;3.87;;;21.40;97.30;;;;;;5034335;28;21102;-62
2022/09/06 00:30:05;;;;;;;9.13;2.70;;;;;;;;;;5032998;28;20485;-63
2022/09/06 00:32:32;;;;;;;13.70;3.83;;;21.30;97.60;;;;;;5034312;28;20477;-63
2022/09/06 00:34:58;;;;;;;9.83;2.90;;;21.20;98.00;;;;;;5030289;28;21030;-63
2022/09/06 00:37:25;;;;;;;11.03;3.50;;;21.20;98.30;;;;;;5030865;28;20485;-63
2022/09/06 00:39:51;;;;;;;15.50;3.70;;;21.10;98.40;;;;;;5031750;28;20477;-64
2022/09/06 00:42:18;;;;;;;12.17;4.20;;;21.00;98.60;;;;;;5034119;28;20492;-62
2022/09/06 00:44:45;;;;;;;11.83;3.40;;;21.00;99.00;;;;;;5029805;28;20929;-62
2022/09/06 00:47:13;;;;;;;15.70;4.00;;;;;;;;;;5032309;28;20507;-62
2022/09/06 00:49:44;;;;;;;19.93;4.53;;;21.10;99.00;;;;;;5029226;28;20703;-63
2022/09/06 00:52:13;;;;;;;9.17;3.07;;;21.20;99.10;;;;;;5030971;28;21037;-63
2022/09/06 00:54:40;;;;;;;15.00;4.40;;;;;;;;;;5036710;28;20484;-63
2022/09/06 00:57:08;;;;;;;11.30;5.17;;;;;;;;;;5034387;28;20484;-62
2022/09/06 00:59:37;;;;;;;13.70;4.37;;;21.10;99.40;;;;;;5036442;28;20569;-63
2022/09/06 01:02:05;;;;;;;14.33;3.87;;;21.10;99.30;;;;;;5037861;28;20873;-63
2022/09/06 01:04:37;;;;;;;11.93;4.33;;;21.10;99.30;;;;;;5033112;28;20480;-62
2022/09/06 01:07:14;;;;;;;25.90;4.20;;;21.10;99.10;;;;;;5032729;28;20481;-63
2022/09/06 01:09:54;;;;;;;14.70;4.20;;;21.10;99.30;;;;;;5036479;28;20492;-63
2022/09/06 01:12:34;;;;;;;22.27;4.37;;;21.00;99.20;;;;;;5038233;28;20473;-63
2022/09/06 01:15:14;;;;;;;10.47;3.23;;;21.00;99.10;;;;;;5019094;28;20546;-62
2022/09/06 01:17:54;;;;;;;22.60;3.97;;;21.10;98.90;;;;;;5037515;28;20476;-63
2022/09/06 01:20:44;;;;;;;10.93;3.87;;;21.10;98.90;;;;;;5047213;28;20491;-63
2022/09/06 01:23:38;;;;;;;7.33;2.83;;;;;;;;;;5040417;28;20648;-63
2022/09/06 01:26:23;;;;;;;16.83;3.33;;;21.10;98.90;;;;;;5049352;28;20480;-62
2022/09/06 01:28:52;;;;;;;21.67;4.00;;;21.10;99.10;;;;;;5035754;28;20483;-61
2022/09/06 01:31:27;;;;;;;18.13;3.17;;;21.20;98.80;;;;;;5034975;28;20479;-62
2022/09/06 01:34:10;;;;;;;21.93;3.80;;;21.20;98.50;;;;;;5032372;28;20478;-63
2022/09/06 01:36:43;;;;;;;7.10;2.60;;;21.20;98.40;;;;;;5040880;28;20545;-62
2022/09/06 01:39:21;;;;;;;9.00;3.97;;;21.20;98.40;;;;;;5038851;28;20495;-63
2022/09/06 01:41:48;;;;;;;17.77;4.00;;;21.20;98.70;;;;;;5048827;28;20492;-62
2022/09/06 01:44:16;;;;;;;7.97;2.60;;;21.20;98.40;;;;;;5038702;28;20498;-62
2022/09/06 01:46:46;;;;;;;11.60;3.37;;;;;;;;;;5046038;28;20483;-63
2022/09/06 01:49:23;;;;;;;10.30;3.97;;;21.20;97.90;;;;;;5037395;28;20497;-62
2022/09/06 01:52:01;;;;;;;15.37;3.83;;;21.10;98.20;;;;;;5032254;28;20561;-62
2022/09/06 01:54:35;;;;;;;9.50;3.83;;;;;;;;;;5045961;28;20472;-61
2022/09/06 01:57:14;;;;;;;7.23;2.80;;;21.10;97.80;;;;;;5063398;28;20477;-62
2022/09/06 02:00:01;;;;;;;19.97;3.93;;;21.10;97.80;;;;;;5075078;28;20486;-62
2022/09/06 02:02:40;;;;;;;9.90;3.40;;;20.80;98.40;;;;;;5042747;28;20807;-62
2022/09/06 02:05:12;;;;;;;22.90;3.83;;;20.80;98.30;;;;;;5042621;28;20478;-62
2022/09/06 02:07:41;;;;;;;10.80;3.70;;;20.80;98.40;;;;;;5045628;28;20490;-62
2022/09/06 02:10:12;;;;;;;15.37;3.60;;;20.80;98.30;;;;;;5048628;28;20661;-62
2022/09/06 02:12:41;;;;;;;7.80;3.37;;;;;;;;;;5028358;28;20477;-61
2022/09/06 02:15:13;;;;;;;10.80;3.23;;;20.80;98.10;;;;;;5049842;28;20483;-62
2022/09/06 02:17:43;;;;;;;13.40;3.70;;;;;;;;;;5041531;28;20894;-63
2022/09/06 02:20:13;;;;;;;11.17;3.60;;;;;;;;;;5051896;28;21059;-61
2022/09/06 02:22:44;;;;;;;24.23;3.97;;;20.80;98.10;;;;;;5000834;28;21059;-61
2022/09/06 02:25:15;;;;;;;9.20;3.37;;;20.70;98.30;;;;;;5040905;28;20480;-62
2022/09/06 02:27:42;;;;;;;11.63;2.67;;;20.60;98.00;;;;;;5049550;28;20763;-62
2022/09/06 02:30:11;;;;;;;7.33;3.10;;;20.60;98.00;;;;;;5032634;28;20480;-61
2022/09/06 02:32:41;;;;;;;7.67;2.60;;;;;;;;;;5050066;28;21003;-61
2022/09/06 02:35:13;;;;;;;8.57;3.50;;;20.50;97.80;;;;;;5038056;28;20504;-62
2022/09/06 02:37:41;;;;;;;11.97;3.60;;;20.50;98.10;;;;;;5033869;28;20488;-61
2022/09/06 02:40:09;;;;;;;8.80;4.07;;;20.30;99.10;;;;;;5045674;28;20488;-61
2022/09/06 02:42:36;;;;;;;18.70;4.97;;;20.10;99.60;;;;;;5035115;28;20925;-61
2022/09/06 02:45:04;;;;;;;20.70;4.40;;;;;;;;;;5033629;28;20896;-61
2022/09/06 02:47:32;;;;;;;10.00;4.17;;;20.00;99.80;;;;;;5035296;28;20495;-63
2022/09/06 02:49:58;;;;;;;14.83;3.80;;;19.90;99.60;;;;;;5035338;28;20479;-62
2022/09/06 02:52:26;;;;;;;7.60;4.03;;;19.80;99.20;;;;;;5034972;28;20488;-62
2022/09/06 02:54:52;;;;;;;17.20;4.10;;;19.90;98.80;;;;;;5034011;28;20597;-61
2022/09/06 02:57:19;;;;;;;16.87;4.17;;;19.90;98.50;;;;;;5029775;28;20486;-62
2022/09/06 02:59:46;;;;;;;7.80;3.40;;;19.90;98.40;;;;;;5036207;28;21047;-61
2022/09/06 03:02:12;;;;;;;17.43;3.53;;;19.80;99.20;;;;;;5034844;28;20487;-63
2022/09/06 03:04:40;;;;;;;22.73;4.53;;;19.70;99.50;;;;;;5032789;28;20893;-63
2022/09/06 03:07:07;;;;;;;19.00;4.13;;;;;;;;;;5036182;28;20844;-61
2022/09/06 03:09:34;;;;;;;16.73;3.50;;;;;;;;;;5056116;28;20588;-62
2022/09/06 03:12:01;;;;;;;23.10;4.70;;;19.80;98.00;;;;;;5059639;28;20487;-61
2022/09/06 03:14:28;;;;;;;13.30;3.50;;;19.80;97.80;;;;;;5049946;28;20479;-62
2022/09/06 03:16:55;;;;;;;10.83;3.97;;;;;;;;;;5073683;28;20883;-62
2022/09/06 03:19:22;;;;;;;26.37;4.03;;;19.60;98.10;;;;;;5068215;28;20482;-63
2022/09/06 03:21:50;;;;;;;16.57;3.67;;;;;;;;;;5035629;28;20480;-62
2022/09/06 03:24:17;;;;;;;21.50;3.67;;;;;;;;;;5037655;28;20494;-61
2022/09/06 03:26:44;;;;;;;30.63;4.20;;;19.10;98.30;;;;;;5039995;28;20904;-61
2022/09/06 03:29:11;;;;;;;20.73;3.27;;;19.20;98.20;;;;;;5048274;28;20591;-62
2022/09/06 03:31:38;;;;;;;12.33;2.40;;;;;;;;;;5048026;28;20481;-61
2022/09/06 03:34:05;;;;;;;14.53;3.77;;;;;;;;;;5034134;28;20514;-62
2022/09/06 03:36:32;;;;;;;9.10;3.37;;;18.90;99.80;;;;;;5044463;28;20538;-62
2022/09/06 03:39:01;;;;;;;9.00;4.57;;;;;;;;;;5032799;28;20460;-62
2022/09/06 03:41:28;;;;;;;20.33;4.70;;;;;;;;;;5034250;28;20488;-61
2022/09/06 03:43:55;;;;;;;16.93;5.40;;;;;;;;;;5033113;28;20495;-62
2022/09/06 03:46:21;;;;;;;24.80;6.67;;;18.40;99.90;;;;;;5041331;28;21242;-63
2022/09/06 03:48:48;;;;;;;21.50;5.07;;;18.30;99.90;;;;;;5036372;28;20471;-62
2022/09/06 03:51:15;;;;;;;11.20;5.37;;;18.30;99.90;;;;;;5037537;28;20564;-63
2022/09/06 03:53:42;;;;;;;12.10;3.80;;;18.40;99.90;;;;;;5035519;28;21016;-62
2022/09/06 03:56:10;;;;;;;21.83;5.23;;;;;;;;;;5042739;28;20534;-61
2022/09/06 03:58:37;;;;;;;25.40;6.10;;;;;;;;;;5042848;28;20475;-62
2022/09/06 04:01:06;;;;;;;24.60;5.97;;;18.00;99.90;;;;;;5044929;28;21100;-61
2022/09/06 04:03:33;;;;;;;22.50;5.50;;;;;;;;;;5047080;28;20488;-63
2022/09/06 04:06:01;;;;;;;11.50;5.03;;;;;;;;;;5052982;28;20929;-62
2022/09/06 04:08:28;;;;;;;12.33;4.33;;;;;;;;;;5051482;28;20768;-62
2022/09/06 04:10:55;;;;;;;28.63;6.50;;;17.80;99.90;;;;;;5049636;28;21035;-62
2022/09/06 04:13:25;;;;;;;12.50;6.27;;;17.80;99.90;;;;;;5049215;28;20777;-61
2022/09/06 04:15:52;;;;;;;17.00;6.00;;;;;;;;;;5027484;28;20989;-61
2022/09/06 04:18:20;;;;;;;13.50;5.80;;;17.90;99.90;;;;;;5033611;28;20985;-61
2022/09/06 04:20:48;;;;;;;19.67;4.60;;;18.10;99.90;;;;;;5034027;28;20988;-63
2022/09/06 04:23:15;;;;;;;11.03;5.33;;;18.20;99.90;;;;;;5033222;28;20503;-62
2022/09/06 04:25:45;;;;;;;7.53;3.47;;;18.30;99.90;;;;;;5048124;28;20483;-62
2022/09/06 04:28:12;;;;;;;8.23;5.17;;;18.30;99.90;;;;;;5014874;28;20480;-62
2022/09/06 04:30:41;;;;;;;8.40;3.50;;;;;;;;;;5040530;28;20792;-63
2022/09/06 04:33:07;;;;;;;7.93;5.50;;;18.40;99.30;;;;;;5053615;28;20843;-63
2022/09/06 04:35:34;;;;;;;23.30;5.77;;;;;;;;;;5026376;28;20503;-61
2022/09/06 04:38:02;;;;;;;36.90;5.70;;;18.40;98.90;;;;;;5034470;28;20534;-63
2022/09/06 04:40:28;;;;;;;11.13;4.37;;;18.40;98.80;;;;;;5031838;28;20522;-61
2022/09/06 04:42:55;;;;;;;11.60;5.30;;;18.40;98.50;;;;;;5031961;28;21046;-61
2022/09/06 04:45:22;;;;;;;20.73;5.40;;;18.40;98.60;;;;;;5044107;28;20479;-61
2022/09/06 04:47:50;;;;;;;12.40;5.20;;;18.30;99.40;;;;;;5041891;28;20491;-62
2022/09/06 04:50:17;;;;;;;21.37;5.90;;;18.00;99.80;;;;;;5033774;28;20545;-62
2022/09/06 04:52:44;;;;;;;47.40;6.40;;;;;;;;;;5033114;28;20486;-62
2022/09/06 04:55:10;;;;;;;23.50;5.70;;;17.60;99.90;;;;;;5032864;28;20487;-62
2022/09/06 04:57:37;;;;;;;22.23;6.33;;;;;;;;;;5033770;28;20660;-63
2022/09/06 05:00:05;;;;;;;48.87;7.17;;;;;;;;;;5033736;28;20505;-62
2022/09/06 05:02:32;;;;;;;15.47;6.10;;;17.50;99.90;;;;;;5031996;28;20488;-62
2022/09/06 05:05:00;;;;;;;13.50;5.20;;;17.50;99.90;;;;;;5035954;28;20882;-62
2022/09/06 05:07:26;;;;;;;19.37;4.80;;;17.60;99.90;;;;;;5033269;28;20489;-61
2022/09/06 05:09:53;;;;;;;16.17;5.67;;;;;;;;;;5033516;28;20523;-61
2022/09/06 05:12:20;;;;;;;20.00;7.10;;;;;;;;;;5033451;28;20476;-62
2022/09/06 05:14:47;;;;;;;18.57;5.20;;;;;;;;;;5033331;28;20487;-62
2022/09/06 05:17:14;;;;;;;19.67;6.17;;;;;;;;;;5046727;28;20625;-62
2022/09/06 05:19:41;;;;;;;16.30;5.10;;;17.40;99.90;;;;;;5052316;28;20494;-63
2022/09/06 05:22:11;;;;;;;14.10;6.00;;;;;;;;;;5037077;28;20480;-63
2022/09/06 05:24:38;;;;;;;12.50;6.13;;;;;;;;;;5031045;28;20484;-61
2022/09/06 05:27:06;;;;;;;17.73;4.47;;;;;;;;;;5034226;28;20472;-62
2022/09/06 05:29:33;;;;;;;21.97;6.00;;;17.50;99.90;;;;;;5048279;28;20495;-62
2022/09/06 05:32:00;;;;;;;24.67;6.17;;;18.00;99.90;;;;;;5053440;28;20483;-62
2022/09/06 05:34:26;;;;;;;18.43;6.70;;;17.80;99.90;;;;;;5039437;28;20472;-61
2022/09/06 05:36:53;;;;;;;17.93;5.70;;;;;;;;;;5033060;28;21915;-62
2022/09/06 05:39:21;;;;;;;22.07;8.13;;;17.70;99.90;;;;;;5030423;28;20484;-62
2022/09/06 05:41:48;;;;;;;15.47;6.33;;;17.70;99.90;;;;;;5028628;28;21098;-62
2022/09/06 05:44:15;;;;;;;19.87;5.87;;;;;;;;;;5033792;28;20541;-61
2022/09/06 05:46:44;;;;;;;9.50;5.17;;;18.00;99.90;;;;;;5055986;28;20988;-63
2022/09/06 05:49:11;;;;;;;19.50;6.50;;;;;;;;;;5040043;28;20593;-61
2022/09/06 05:51:38;;;;;;;25.87;6.30;;;18.10;99.90;;;;;;5044327;28;20472;-62
2022/09/06 05:54:05;;;;;;;11.20;5.90;;;;;;;;;;5036073;28;21870;-61
2022/09/06 05:56:33;;;;;;;13.13;5.83;;;;;;;;;;5036200;28;20499;-62
2022/09/06 05:59:00;;;;;;;27.97;6.83;;;;;;;;;;5041641;28;21002;-61
2022/09/06 06:01:28;;;;;;;20.80;6.40;;;;;;;;;;5036556;28;20480;-62
2022/09/06 06:03:57;;;;;;;14.23;6.00;;;18.50;99.90;;;;;;5035701;28;20814;-62
2022/09/06 06:06:25;;;;;;;34.77;7.47;;;;;;;;;;5047439;28;20737;-62
2022/09/06 06:08:52;;;;;;;14.50;6.60;;;18.70;99.90;;;;;;5036832;28;20480;-62
2022/09/06 06:11:19;;;;;;;11.53;6.10;;;18.80;99.90;;;;;;5035085;28;20549;-61
2022/09/06 06:13:47;;;;;;;23.43;8.40;;;;;;;;;;5032027;28;21012;-62
2022/09/06 06:16:17;;;;;;;26.27;6.63;;;19.00;99.90;;;;;;5034786;28;20504;-62
2022/09/06 06:18:44;;;;;;;16.37;8.37;;;19.00;99.90;;;;;;4996430;28;21060;-61
2022/09/06 06:21:12;;;;;;;21.53;7.47;;;19.00;99.90;;;;;;5041341;28;20487;-62
2022/09/06 06:23:40;;;;;;;13.20;5.90;;;19.10;99.90;;;;;;5033124;28;20491;-63
2022/09/06 06:26:08;;;;;;;28.87;7.17;;;19.10;99.90;;;;;;5036140;28;20488;-63
2022/09/06 06:28:35;;;;;;;14.00;7.53;;;19.30;99.90;;;;;;5045411;28;20467;-62
2022/09/06 06:31:04;;;;;;;15.80;7.63;;;;;;;;;;5014926;28;20489;-63
2022/09/06 06:33:31;;;;;;;20.40;8.00;;;;;;;;;;5034568;28;20499;-63
2022/09/06 06:36:02;;;;;;;13.47;6.77;;;19.40;99.90;;;;;;5043744;28;20495;-62
2022/09/06 06:38:32;;;;;;;23.03;8.57;;;19.50;99.90;;;;;;5052418;28;20523;-62
2022/09/06 06:40:59;;;;;;;23.10;7.17;;;19.70;99.90;;;;;;5034844;28;20884;-62
2022/09/06 06:43:26;;;;;;;16.00;8.43;;;20.00;99.90;;;;;;5033125;28;20475;-62
2022/09/06 06:45:53;;;;;;;21.77;8.10;;;20.20;99.90;;;;;;5046500;28;21003;-62
2022/09/06 06:48:21;;;;;;;22.87;8.27;;;20.40;99.90;;;;;;5045666;28;20484;-62
2022/09/06 06:50:48;;;;;;;15.90;6.60;;;20.50;99.90;;;;;;5035955;28;20476;-62
2022/09/06 06:53:15;;;;;;;14.70;7.50;;;;;;;;;;5030443;28;20487;-63
2022/09/06 06:55:46;;;;;;;19.83;5.37;;;20.60;99.60;;;;;;5016726;28;21058;-62
2022/09/06 06:58:14;;;;;;;24.13;8.23;;;;;;;;;;5034774;28;20469;-61
2022/09/06 07:00:41;;;;;;;11.87;5.40;;;;;;;;;;5033488;28;20765;-62
2022/09/06 07:03:08;;;;;;;35.00;6.83;;;20.30;99.50;;;;;;5035740;28;20973;-62
2022/09/06 07:05:37;;;;;;;11.70;6.23;;;20.20;99.70;;;;;;5030830;28;20485;-64
2022/09/06 07:08:04;;;;;;;12.80;7.00;;;;;;;;;;5031815;28;20542;-63
2022/09/06 07:10:31;;;;;;;13.17;5.70;;;20.40;99.90;;;;;;5034342;28;20489;-63
2022/09/06 07:12:58;;;;;;;15.73;7.13;;;;;;;;;;5034321;28;20474;-63
2022/09/06 07:15:25;;;;;;;12.73;7.33;;;;;;;;;;5030742;28;20484;-61
2022/09/06 07:17:54;;;;;;;17.20;7.40;;;20.80;99.90;;;;;;5034380;28;20480;-62
2022/09/06 07:20:21;;;;;;;10.37;7.50;;;;;;;;;;5030862;28;20479;-63
2022/09/06 07:22:58;;;;;;;11.70;6.53;;;;;;;;;;5035325;28;20472;-63
2022/09/06 07:25:25;;;;;;;12.83;7.87;;;21.70;99.90;;;;;;5028338;28;20561;-62
2022/09/06 07:27:56;;;;;;;9.80;7.03;;;22.10;99.90;;;;;;5032352;28;20557;-63
2022/09/06 07:30:23;;;;;;;26.73;8.70;;;;;;;;;;5032935;28;20480;-62
2022/09/06 07:32:50;;;;;;;20.20;6.13;;;;;;;;;;5035522;28;20510;-63
2022/09/06 07:35:19;;;;;;;23.07;6.37;;;;;;;;;;5030593;28;20487;-63
2022/09/06 07:37:53;;;;;;;20.60;5.97;;;24.00;98.70;;;;;;5035897;28;20543;-64
2022/09/06 07:40:20;;;;;;;18.83;6.57;;;;;;;;;;5031350;28;20484;-64
2022/09/06 07:42:48;;;;;;;18.80;5.97;;;;;;;;;;5035739;28;20916;-65
2022/09/06 07:45:15;;;;;;;16.40;5.33;;;;;;;;;;5024424;28;20960;-63
2022/09/06 07:47:42;;;;;;;12.53;5.00;;;25.20;95.90;;;;;;5033805;28;20600;-65
2022/09/06 07:50:09;;;;;;;10.60;5.07;;;25.40;96.00;;;;;;5022398;28;20550;-63
2022/09/06 07:52:36;;;;;;;13.20;5.47;;;25.60;95.90;;;;;;5033541;28;20502;-63
2022/09/06 07:55:05;;;;;;;13.77;5.90;;;;;;;;;;5031460;28;20689;-62
2022/09/06 07:57:32;;;;;;;42.13;6.83;;;26.00;95.20;;;;;;5034697;28;21034;-64
2022/09/06 07:59:59;;;;;;;11.87;5.90;;;26.20;95.10;;;;;;5034495;28;20482;-63
2022/09/06 08:02:26;;;;;;;12.80;6.10;;;26.40;95.30;;;;;;5030786;28;20494;-65
2022/09/06 08:04:55;;;;;;;13.13;5.60;;;26.10;94.90;;;;;;5029283;28;20999;-64
2022/09/06 08:07:23;;;;;;;11.43;5.83;;;26.60;95.10;;;;;;5032973;28;20486;-62
2022/09/06 08:09:49;;;;;;;8.63;5.80;;;26.80;94.40;;;;;;5034582;28;20726;-64
2022/09/06 08:12:18;;;;;;;40.60;7.33;;;26.70;92.80;;;;;;5030060;28;20483;-63
2022/09/06 08:14:45;;;;;;;10.73;5.57;;;;;;;;;;5031504;28;20479;-64
2022/09/06 08:17:12;;;;;;;9.10;5.60;;;26.40;94.20;;;;;;5034166;28;20477;-66
2022/09/06 08:19:39;;;;;;;11.80;5.07;;;26.50;95.00;;;;;;5030682;28;20741;-63
2022/09/06 08:22:05;;;;;;;8.87;5.00;;;26.60;93.80;;;;;;5033579;28;20981;-62
2022/09/06 08:24:34;;;;;;;11.27;6.33;;;26.80;94.10;;;;;;5027478;28;20499;-65
2022/09/06 08:27:01;;;;;;;19.47;6.13;;;;;;;;;;5034578;28;20998;-64
2022/09/06 08:29:29;;;;;;;13.27;5.20;;;26.70;94.10;;;;;;5033018;28;20479;-66
2022/09/06 08:31:56;;;;;;;8.03;5.57;;;26.50;93.80;;;;;;5035149;28;20482;-62
2022/09/06 08:34:23;;;;;;;18.23;5.50;;;26.30;93.60;;;;;;5029601;28;20480;-63
2022/09/06 08:36:49;;;;;;;12.93;6.20;;;26.20;94.80;;;;;;5034056;28;20479;-65
2022/09/06 08:39:16;;;;;;;14.83;5.57;;;26.00;93.90;;;;;;5031759;28;20972;-63
2022/09/06 08:41:48;;;;;;;23.33;5.30;;;25.90;94.50;;;;;;5031198;28;20533;-63
2022/09/06 08:44:20;;;;;;;9.60;5.03;;;26.00;95.30;;;;;;5017501;28;20481;-65
2022/09/06 08:46:55;;;;;;;9.77;4.97;;;26.00;94.90;;;;;;5032852;28;20482;-65
2022/09/06 08:49:23;;;;;;;10.03;5.10;;;26.00;94.60;;;;;;5023367;28;20482;-64
2022/09/06 08:52:01;;;;;;;21.57;5.80;;;;;;;;;;5039920;28;20464;-64
2022/09/06 08:54:35;;;;;;;12.77;5.10;;;25.90;94.80;;;;;;5025574;28;20497;-65
2022/09/06 08:57:05;;;;;;;13.23;5.57;;;;;;;;;;5033144;28;20843;-63
2022/09/06 08:59:37;;;;;;;31.03;5.57;;;26.00;95.70;;;;;;5032045;28;21023;-63
2022/09/06 09:02:11;;;;;;;13.47;4.90;;;26.10;93.80;;;;;;5031946;28;20690;-65
2022/09/06 09:04:41;;;;;;;12.20;4.80;;;;;;;;;;5028670;28;20580;-63
2022/09/06 09:07:24;;;;;;;15.33;4.00;;;26.40;92.50;;;;;;5030795;28;20478;-65
2022/09/06 09:09:52;;;;;;;9.73;4.47;;;;;;;;;;5018124;28;20487;-64
2022/09/06 09:12:22;;;;;;;13.33;4.90;;;26.30;90.80;;;;;;5022007;28;21149;-63
2022/09/06 09:14:51;;;;;;;7.50;4.17;;;;;;;;;;5027795;28;20503;-62
2022/09/06 09:17:25;;;;;;;12.37;4.63;;;26.20;90.30;;;;;;5033080;28;21180;-65
2022/09/06 09:19:51;;;;;;;16.77;3.90;;;26.20;90.00;;;;;;5026243;28;20486;-62
2022/09/06 09:22:19;;;;;;;10.50;3.70;;;26.10;90.40;;;;;;5032218;28;20475;-63
2022/09/06 09:24:48;;;;;;;15.10;3.97;;;26.20;91.40;;;;;;5033712;28;20475;-64
2022/09/06 09:27:19;;;;;;;10.90;3.70;;;26.10;90.60;;;;;;5037139;28;20483;-63
2022/09/06 09:30:01;;;;;;;9.60;3.93;;;26.10;91.40;;;;;;5036468;28;20467;-65
2022/09/06 09:32:34;;;;;;;15.27;5.10;;;26.10;91.50;;;;;;5027478;28;20533;-64
2022/09/06 09:35:22;;;;;;;12.53;4.10;;;26.20;92.60;;;;;;5043809;28;20552;-63
2022/09/06 09:37:59;;;;;;;12.67;4.63;;;26.30;91.40;;;;;;5034327;28;20474;-62
2022/09/06 09:40:32;;;;;;;27.53;4.83;;;26.20;90.90;;;;;;5036043;28;20463;-63
2022/09/06 09:43:16;;;;;;;7.37;3.80;;;26.20;92.20;;;;;;5032621;28;20478;-63
2022/09/06 09:45:44;;;;;;;24.97;5.10;;;;;;;;;;5034926;28;20943;-63
2022/09/06 09:48:26;;;;;;;11.87;4.03;;;;;;;;;;5036964;28;20572;-64
2022/09/06 09:50:53;;;;;;;15.30;4.57;;;26.50;91.40;;;;;;5057216;28;20494;-65
2022/09/06 09:53:23;;;;;;;14.37;4.40;;;26.70;91.30;;;;;;5044796;28;20814;-63
2022/09/06 09:55:55;;;;;;;9.03;4.03;;;;;;;;;;5033161;28;20489;-63
2022/09/06 09:58:32;;;;;;;17.67;5.50;;;27.00;91.50;;;;;;5036653;28;20472;-63
2022/09/06 10:01:16;;;;;;;10.57;3.87;;;27.10;90.10;;;;;;5037755;28;20489;-63
2022/09/06 10:03:45;;;;;;;13.03;3.97;;;;;;;;;;5033838;28;20901;-62
2022/09/06 10:06:14;;;;;;;13.00;4.07;;;27.20;90.30;;;;;;5050806;28;20486;-64
2022/09/06 10:08:43;;;;;;;12.87;4.20;;;27.10;90.30;;;;;;5047723;28;20494;-63
2022/09/06 10:11:14;;;;;;;16.83;4.17;;;26.90;88.50;;;;;;5054295;28;20851;-63
2022/09/06 10:13:42;;;;;;;11.50;3.60;;;;;;;;;;5045469;28;20495;-63
2022/09/06 10:16:09;;;;;;;11.10;4.00;;;26.70;90.00;;;;;;5045952;28;20998;-63
2022/09/06 10:18:38;;;;;;;10.17;3.60;;;26.90;90.00;;;;;;5055729;28;20499;-62
2022/09/06 10:21:09;;;;;;;13.93;3.97;;;27.00;90.30;;;;;;5056697;28;20485;-63
2022/09/06 10:23:48;;;;;;;21.40;6.23;;;;;;;;;;5049015;28;20482;-63
2022/09/06 10:26:22;;;;;;;9.63;3.40;;;27.50;86.00;;;;;;5039357;28;20475;-62
2022/09/06 10:28:51;;;;;;;13.93;3.03;;;;;;;;;;5055406;28;20528;-64
2022/09/06 10:31:46;;;;;;;5.53;3.57;;;27.80;84.30;;;;;;5045766;28;21170;-63
2022/09/06 10:34:32;;;;;;;8.63;2.90;;;27.90;81.90;;;;;;5045534;28;20512;-64
2022/09/06 10:37:10;;;;;;;5.73;2.73;;;28.10;80.60;;;;;;5033141;28;21004;-63
2022/09/06 10:39:47;;;;;;;7.53;3.13;;;28.20;81.50;;;;;;5053409;28;21022;-62
2022/09/06 10:42:25;;;;;;;4.10;3.03;;;28.20;79.00;;;;;;5049007;28;20854;-62
2022/09/06 10:45:23;;;;;;;4.63;3.23;;;28.20;77.90;;;;;;5041673;28;20474;-65
2022/09/06 10:48:00;;;;;;;21.30;3.40;;;;;;;;;;5061585;28;21059;-62
2022/09/06 10:50:39;;;;;;;6.47;2.63;;;28.30;78.90;;;;;;5053538;28;20475;-63
2022/09/06 10:53:13;;;;;;;4.17;2.63;;;28.40;77.00;;;;;;5055599;28;20486;-63
2022/09/06 10:55:41;;;;;;;9.63;2.87;;;28.40;76.10;;;;;;5068141;28;20478;-65
2022/09/06 10:58:10;;;;;;;19.20;3.23;;;28.40;74.90;;;;;;5052199;28;20476;-64
2022/09/06 11:00:45;;;;;;;14.87;2.87;;;28.60;75.20;;;;;;5074317;28;21275;-64
2022/09/06 11:03:16;;;;;;;9.70;2.87;;;;;;;;;;5072750;28;20719;-63
2022/09/06 11:05:46;;;;;;;11.33;3.10;;;29.00;75.80;;;;;;5056189;28;20539;-64
2022/09/06 11:08:18;;;;;;;6.33;2.07;;;;;;;;;;5054311;28;20636;-63
2022/09/06 11:10:48;;;;;;;6.23;2.53;;;29.20;72.40;;;;;;5053437;28;20454;-64
2022/09/06 11:13:17;;;;;;;11.23;3.07;;;29.20;72.40;;;;;;5054623;28;20491;-65
2022/09/06 11:15:48;;;;;;;15.20;2.90;;;29.40;74.20;;;;;;5055091;28;20479;-63
2022/09/06 11:18:21;;;;;;;12.07;3.13;;;29.40;72.20;;;;;;5063238;28;20870;-64
2022/09/06 11:20:55;;;;;;;7.07;2.67;;;;;;;;;;5071334;28;20479;-63
2022/09/06 11:23:35;;;;;;;21.83;3.20;;;;;;;;;;5061260;28;20471;-63
2022/09/06 11:26:24;;;;;;;4.23;2.57;;;29.90;69.20;;;;;;5042799;28;20488;-63
2022/09/06 11:28:54;;;;;;;10.70;2.40;;;30.20;70.60;;;;;;5057628;28;20467;-64
2022/09/06 11:31:24;;;;;;;11.00;2.53;;;;;;;;;;5052155;28;20962;-63
2022/09/06 11:34:05;;;;;;;8.47;2.97;;;30.50;69.80;;;;;;5054166;28;20512;-65
2022/09/06 11:36:35;;;;;;;6.80;2.60;;;;;;;;;;5073283;28;21031;-63
2022/09/06 11:39:05;;;;;;;12.33;2.60;;;;;;;;;;5069488;28;20478;-63
2022/09/06 11:41:34;;;;;;;11.17;2.50;;;30.10;66.20;;;;;;5072360;28;20477;-63
2022/09/06 11:44:01;;;;;;;8.97;1.97;;;30.20;69.40;;;;;;5052831;28;20464;-64
2022/09/06 11:47:00;;;;;;;31.03;3.23;;;30.30;68.40;;;;;;5056706;28;20486;-65
2022/09/06 11:49:31;;;;;;;8.23;2.53;;;;;;;;;;5050768;28;20452;-63
2022/09/06 11:51:58;;;;;;;6.90;2.60;;;;;;;;;;5059844;28;20470;-64
2022/09/06 11:54:31;;;;;;;9.13;2.73;;;;;;;;;;5054958;28;21166;-63
2022/09/06 11:57:02;;;;;;;16.63;3.13;;;31.10;67.90;;;;;;5054604;28;20877;-64
2022/09/06 11:59:41;;;;;;;9.23;2.80;;;;;;;;;;5067274;28;20452;-63
2022/09/06 12:02:31;;;;;;;8.00;1.93;;;30.90;65.60;;;;;;5059662;28;20835;-63
2022/09/06 12:05:25;;;;;;;6.83;2.03;;;30.80;66.00;;;;;;5037515;28;20487;-63
2022/09/06 12:08:11;;;;;;;6.37;2.07;;;;;;;;;;5070387;28;20908;-64
2022/09/06 12:10:51;;;;;;;35.53;3.10;;;30.90;61.60;;;;;;5045076;28;20910;-63
2022/09/06 12:13:41;;;;;;;6.73;1.77;;;30.80;60.40;;;;;;5071400;28;20482;-63
2022/09/06 12:16:10;;;;;;;10.20;2.30;;;30.60;62.50;;;;;;5056626;28;20445;-64
2022/09/06 12:19:01;;;;;;;15.17;2.40;;;30.40;61.80;;;;;;5056668;28;20468;-63
2022/09/06 12:21:51;;;;;;;10.10;1.97;;;;;;;;;;5071896;28;20756;-64
2022/09/06 12:24:48;;;;;;;22.53;2.50;;;;;;;;;;5063955;28;21084;-63
2022/09/06 12:27:16;;;;;;;15.17;3.73;;;;;;;;;;5048389;28;20460;-64
2022/09/06 12:29:56;;;;;;;5.63;2.00;;;30.00;63.90;;;;;;5056109;28;20904;-63
2022/09/06 12:32:28;;;;;;;7.63;1.83;;;30.10;65.20;;;;;;5051201;28;20465;-64
2022/09/06 12:34:57;;;;;;;10.70;1.93;;;30.30;64.40;;;;;;5056588;28;20483;-63
2022/09/06 12:37:33;;;;;;;8.73;1.67;;;30.40;64.80;;;;;;5073014;28;20845;-63
2022/09/06 12:40:00;;;;;;;7.60;1.93;;;30.60;64.60;;;;;;5061582;28;20456;-64
2022/09/06 12:42:27;;;;;;;6.37;2.50;;;30.40;60.90;;;;;;5055159;28;20856;-62
2022/09/06 12:44:55;;;;;;;13.73;2.40;;;30.40;62.50;;;;;;5051535;28;20485;-64
2022/09/06 12:47:25;;;;;;;9.87;2.30;;;;;;;;;;5066081;28;20458;-64
2022/09/06 12:50:17;;;;;;;10.17;2.00;;;30.30;62.40;;;;;;5049759;28;20665;-63
2022/09/06 12:52:46;;;;;;;16.43;2.27;;;30.60;60.90;;;;;;5019034;28;20956;-63
2022/09/06 12:55:23;;;;;;;4.33;1.43;;;31.00;61.90;;;;;;5020275;28;20457;-64
2022/09/06 12:57:53;;;;;;;9.40;2.20;;;31.10;59.80;;;;;;5053000;28;20928;-63
2022/09/06 13:00:21;;;;;;;6.30;2.07;;;;;;;;;;5068581;28;20535;-64
2022/09/06 13:02:56;;;;;;;10.60;4.47;;;31.90;60.90;;;;;;5073733;28;20477;-64
2022/09/06 13:05:26;;;;;;;14.53;2.57;;;31.90;60.90;;;;;;5054139;28;21175;-64
2022/09/06 13:07:54;;;;;;;8.23;2.10;;;;;;;;;;5049894;28;21290;-63
2022/09/06 13:10:25;;;;;;;7.73;2.00;;;31.50;59.50;;;;;;5055269;28;20997;-64
2022/09/06 13:12:55;;;;;;;7.73;2.33;;;31.40;60.50;;;;;;5057064;28;20479;-62
2022/09/06 13:15:25;;;;;;;10.27;1.87;;;;;;;;;;5047394;28;20457;-63
2022/09/06 13:17:52;;;;;;;18.70;2.63;;;31.00;61.30;;;;;;5061627;28;21251;-62
2022/09/06 13:20:24;;;;;;;7.43;2.13;;;;;;;;;;5071548;28;20876;-63
2022/09/06 13:22:53;;;;;;;7.13;1.90;;;30.80;61.90;;;;;;5058903;28;20452;-64
2022/09/06 13:25:24;;;;;;;21.63;2.80;;;;;;;;;;5050951;28;20492;-63
2022/09/06 13:27:56;;;;;;;11.37;2.00;;;31.00;63.40;;;;;;5052782;28;20449;-63
2022/09/06 13:30:44;;;;;;;25.70;2.93;;;;;;;;;;5054601;28;20885;-63